Time;durP1;ratioP1;P1;durP2;ratioP2;P2;SDS_P1;SDS_P2;PMS_P1;PMS_P2;Temp;Humidity;BMP_temperature;BMP_pressure;BME280_temperature;BME280_humidity;BME280_pressure;Samples;Min_cycle;Max_cycle;Signal;HPM_P1;HPM_P2
2021/05/29 00:00:38;;;;;;;230.85;143.07;;;;;;;17.71;64.30;98652.88;4960956;28;20047;-63
2021/05/29 00:03:04;;;;;;;50.15;26.52;;;;;;;17.70;64.78;98642.97;4960308;28;20198;-63
2021/05/29 00:05:31;;;;;;;90.38;53.80;;;;;;;17.64;64.38;98644.38;4962351;28;20076;-63
2021/05/29 00:07:58;;;;;;;51.47;30.08;;;;;;;17.66;63.17;98641.25;4977811;28;20110;-63
2021/05/29 00:10:23;;;;;;;61.55;34.40;;;;;;;17.69;62.89;98646.91;4961040;28;20499;-63
2021/05/29 00:12:49;;;;;;;70.13;34.97;;;;;;;17.71;63.60;98652.88;4961509;28;20559;-62
2021/05/29 00:15:16;;;;;;;59.78;33.72;;;;;;;17.74;63.99;98656.09;4962309;28;20078;-63
2021/05/29 00:17:42;;;;;;;39.22;20.27;;;;;;;17.75;64.53;98655.75;4961632;28;20511;-63
2021/05/29 00:20:09;;;;;;;35.08;16.05;;;;;;;17.76;65.05;98645.47;4975832;28;20729;-64
2021/05/29 00:22:37;;;;;;;39.22;19.40;;;;;;;17.81;65.35;98645.25;4961234;28;20047;-64
2021/05/29 00:25:04;;;;;;;41.70;17.60;;;;;;;17.76;64.96;98645.47;4960259;28;20069;-62
2021/05/29 00:27:30;;;;;;;43.38;22.70;;;;;;;17.72;64.84;98640.66;4960752;28;20138;-64
2021/05/29 00:29:56;;;;;;;39.80;18.27;;;;;;;17.75;65.08;98644.69;4965792;28;20142;-64
2021/05/29 00:32:22;;;;;;;30.23;14.52;;;;;;;17.76;64.33;98648.25;4961195;28;20484;-63
2021/05/29 00:34:48;;;;;;;37.35;16.60;;;;;;;17.77;64.87;98641.56;4961696;28;20429;-63
2021/05/29 00:37:14;;;;;;;31.65;14.52;;;;;;;17.78;65.10;98638.44;4960472;28;20051;-63
2021/05/29 00:39:41;;;;;;;26.52;11.75;;;;;;;17.78;64.50;98643.16;4965417;28;20055;-62
2021/05/29 00:42:08;;;;;;;34.47;14.57;;;;;;;17.77;64.83;98642.38;4964780;28;20043;-63
2021/05/29 00:44:51;;;;;;;30.13;10.18;;;;;;;17.76;63.98;98639.94;4965464;28;20065;-63
2021/05/29 00:47:19;;;;;;;24.58;10.85;;;;;;;17.73;63.28;98635.94;4964438;28;20137;-63
2021/05/29 00:49:45;;;;;;;24.40;9.50;;;;;;;17.72;63.15;98642.63;4964599;28;20126;-63
2021/05/29 00:52:13;;;;;;;20.95;9.65;;;;;;;17.71;63.04;98639.06;4964976;28;20134;-63
2021/05/29 00:54:39;;;;;;;23.58;10.50;;;;;;;17.71;62.93;98636.28;4965027;28;20090;-62
2021/05/29 00:57:06;;;;;;;20.77;9.50;;;;;;;17.74;62.86;98633.97;4965250;28;20488;-63
2021/05/29 00:59:33;;;;;;;27.02;12.75;;;;;;;17.75;63.47;98632.81;4964592;28;20053;-63
2021/05/29 01:01:59;;;;;;;32.08;14.80;;;;;;;17.81;63.83;98636.97;4964237;28;20376;-62
2021/05/29 01:04:25;;;;;;;29.58;15.18;;;;;;;17.80;63.78;98632.59;4964026;28;20050;-61
2021/05/29 01:06:51;;;;;;;82.93;44.35;;;;;;;17.77;63.85;98630.50;4964764;28;20133;-62
2021/05/29 01:09:17;;;;;;;96.47;49.03;;;;;;;17.71;64.14;98628.00;4964457;28;20046;-61
2021/05/29 01:11:43;;;;;;;33.95;15.05;;;;;;;17.67;63.90;98638.16;4964607;28;20403;-62
2021/05/29 01:14:11;;;;;;;33.72;12.77;;;;;;;17.66;63.57;98633.78;4964194;28;20443;-63
2021/05/29 01:19:03;;;;;;;43.00;19.08;;;;;;;17.74;63.81;98639.50;4965115;28;20143;-63
2021/05/29 01:21:29;;;;;;;28.25;12.95;;;;;;;17.76;63.60;98635.25;4964908;28;20043;-63
2021/05/29 01:23:56;;;;;;;29.40;12.82;;;;;;;17.73;63.70;98638.72;4964135;28;20051;-63
2021/05/29 01:26:23;;;;;;;33.05;12.45;;;;;;;17.75;63.52;98636.41;4964061;28;20081;-62
2021/05/29 01:28:56;;;;;;;25.80;13.95;;;;;;;17.78;63.64;98632.94;4962642;28;20401;-63
2021/05/29 01:31:29;;;;;;;31.13;15.20;;;;;;;17.77;63.98;98630.50;4963755;28;20055;-63
2021/05/29 01:33:56;;;;;;;25.65;10.57;;;;;;;17.77;63.92;98627.72;4964987;28;20054;-62
2021/05/29 01:36:22;;;;;;;;;;;;;;;17.77;63.74;98624.97;4965396;28;20039;-62
2021/05/29 01:38:49;;;;;;;28.17;11.50;;;;;;;17.72;64.06;98609.47;4962729;28;19930;-60
2021/05/29 01:41:19;;;;;;;24.65;10.57;;;;;;;17.72;64.05;98609.47;4964529;28;20245;-64
2021/05/29 01:43:48;;;;;;;27.58;11.55;;;;;;;17.67;64.28;98598.66;4965041;28;20093;-63
2021/05/29 01:46:18;;;;;;;21.50;9.15;;;;;;;17.63;64.43;98593.00;4964602;28;20051;-63
2021/05/29 01:48:45;;;;;;;25.90;9.73;;;;;;;17.61;64.54;98594.53;4961922;28;20140;-64
2021/05/29 01:51:12;;;;;;;;;;;;;;;17.61;65.04;98594.53;4964436;28;20046;-63
2021/05/29 01:53:38;;;;;;;25.07;11.13;;;;;;;17.58;64.99;98598.78;4963738;28;19948;-64
2021/05/29 01:56:05;;;;;;;33.60;12.18;;;;;;;17.57;65.29;98599.94;4963801;28;20316;-63
2021/05/29 01:58:33;;;;;;;28.67;12.38;;;;;;;17.63;64.98;98593.00;4961982;28;20130;-62
2021/05/29 02:00:59;;;;;;;25.25;11.85;;;;;;;17.57;64.60;98599.94;4963151;28;20039;-62
2021/05/29 02:03:26;;;;;;;22.90;12.52;;;;;;;17.59;64.71;98594.88;4963311;28;20051;-63
2021/05/29 02:05:53;;;;;;;32.47;15.48;;;;;;;17.58;65.36;98596.03;4961928;28;20096;-62
2021/05/29 02:08:20;;;;;;;30.83;13.93;;;;;;;17.66;64.99;98595.09;4963477;28;20062;-64
2021/05/29 02:10:47;;;;;;;24.67;13.10;;;;;;;17.76;64.81;98595.72;4963201;28;20043;-63
2021/05/29 02:13:23;;;;;;;29.25;13.13;;;;;;;17.83;64.83;98602.25;4969695;28;20141;-64
2021/05/29 02:15:51;;;;;;;28.27;13.25;;;;;;;17.92;64.63;98604.84;4962353;28;20070;-63
2021/05/29 02:18:20;;;;;;;33.15;13.88;;;;;;;17.98;64.83;98599.88;4964220;28;20055;-64
2021/05/29 02:20:48;;;;;;;25.45;12.52;;;;;;;18.04;64.89;98606.00;4963304;28;20054;-63
2021/05/29 02:23:19;;;;;;;26.98;13.68;;;;;;;18.03;64.91;98596.09;4962873;28;20145;-62
2021/05/29 02:25:45;;;;;;;30.85;13.18;;;;;;;18.01;64.76;98599.16;4969451;28;20058;-63
2021/05/29 02:28:12;;;;;;;23.33;13.55;;;;;;;17.98;64.57;98606.22;4963336;28;20079;-63
2021/05/29 02:30:39;;;;;;;27.13;12.90;;;;;;;17.97;64.96;98601.84;4963552;28;20518;-62
2021/05/29 02:33:06;;;;;;;27.33;12.67;;;;;;;17.98;64.92;98595.16;4963064;28;20422;-64
2021/05/29 02:35:33;;;;;;;29.98;14.00;;;;;;;18.04;64.53;98594.94;4962560;28;20260;-61
2021/05/29 02:37:59;;;;;;;26.52;13.57;;;;;;;17.98;65.04;98594.34;4965551;28;20039;-63
2021/05/29 02:40:25;;;;;;;23.60;12.98;;;;;;;18.03;64.84;98593.31;4961818;28;20421;-61
2021/05/29 02:42:52;;;;;;;28.75;13.27;;;;;;;18.08;64.92;98579.22;4962454;28;20054;-62
2021/05/29 02:45:18;;;;;;;28.60;13.45;;;;;;;18.14;64.60;98584.13;4960948;28;20047;-61
2021/05/29 02:47:44;;;;;;;32.55;13.40;;;;;;;18.12;65.07;98571.84;4961526;28;20047;-63
2021/05/29 02:50:14;;;;;;;31.08;15.07;;;;;;;18.16;64.98;98586.56;4963080;28;20058;-64
2021/05/29 02:52:41;;;;;;;30.45;16.20;;;;;;;18.17;64.64;98588.16;4962322;28;20050;-60
2021/05/29 02:55:15;;;;;;;31.30;15.35;;;;;;;18.20;64.83;98581.13;4962199;28;20532;-62
2021/05/29 02:57:41;;;;;;;33.88;16.63;;;;;;;18.21;64.72;98578.00;4963669;28;20571;-63
2021/05/29 03:00:10;;;;;;;36.55;17.45;;;;;;;18.21;64.71;98572.47;4962207;28;20409;-63
2021/05/29 03:02:36;;;;;;;34.10;16.75;;;;;;;18.25;64.48;98573.34;4966441;28;20090;-63
2021/05/29 03:05:06;;;;;;;34.60;16.98;;;;;;;18.26;64.41;98572.22;4962405;28;20504;-62
2021/05/29 03:07:34;;;;;;;44.55;17.60;;;;;;;18.31;64.48;98578.63;4962291;28;20414;-64
2021/05/29 03:10:01;;;;;;;50.53;17.95;;;;;;;18.34;64.71;98573.19;4982242;28;20042;-61
2021/05/29 03:12:27;;;;;;;34.17;17.38;;;;;;;18.35;64.32;98573.97;4965796;28;20054;-62
2021/05/29 03:14:53;;;;;;;35.80;17.05;;;;;;;18.35;64.45;98576.75;4961725;28;20117;-61
2021/05/29 03:17:19;;;;;;;33.25;16.58;;;;;;;18.38;64.15;98581.56;4963076;28;20047;-60
2021/05/29 03:19:45;;;;;;;37.35;16.90;;;;;;;18.39;64.38;98575.69;4963165;28;20468;-60
2021/05/29 03:22:11;;;;;;;28.98;15.52;;;;;;;18.43;64.33;98578.56;4962469;28;20069;-59
2021/05/29 03:24:38;;;;;;;30.60;16.05;;;;;;;18.45;64.07;98567.09;4962228;28;20070;-59
2021/05/29 03:27:05;;;;;;;28.63;16.33;;;;;;;18.48;63.93;98563.63;4961952;28;20046;-62
2021/05/29 03:29:31;;;;;;;32.00;16.83;;;;;;;18.51;63.92;98563.72;4961866;28;20043;-60
2021/05/29 03:31:57;;;;;;;37.08;17.88;;;;;;;18.56;63.94;98560.66;4963551;28;20056;-61
2021/05/29 03:34:23;;;;;;;30.50;16.75;;;;;;;18.64;63.53;98561.63;4962163;28;20059;-61
2021/05/29 03:36:49;;;;;;;31.88;17.05;;;;;;;18.56;63.82;98557.91;4962308;28;20133;-61
2021/05/29 03:39:15;;;;;;;32.97;16.83;;;;;;;18.64;63.73;98563.63;4963610;28;20130;-62
2021/05/29 03:41:42;;;;;;;28.77;17.15;;;;;;;18.78;63.70;98560.38;4963085;28;20427;-61
2021/05/29 03:44:08;;;;;;;33.30;17.63;;;;;;;18.87;63.08;98555.44;4963192;28;20139;-63
2021/05/29 03:46:34;;;;;;;31.88;18.10;;;;;;;18.97;63.00;98563.19;4962643;28;20134;-63
2021/05/29 03:49:00;;;;;;;42.83;18.67;;;;;;;19.06;63.21;98568.56;4963527;28;20042;-63
2021/05/29 03:51:26;;;;;;;31.55;18.10;;;;;;;19.13;62.79;98557.63;4977846;28;20053;-62
2021/05/29 03:53:52;;;;;;;34.50;18.77;;;;;;;19.19;62.53;98558.16;4963215;28;20047;-64
2021/05/29 03:56:18;;;;;;;31.52;16.80;;;;;;;19.29;62.47;98559.53;4962264;28;20039;-63
2021/05/29 03:58:45;;;;;;;29.98;17.45;;;;;;;19.38;62.02;98554.59;4961707;28;20054;-65
2021/05/29 04:01:11;;;;;;;36.63;18.00;;;;;;;19.42;61.58;98557.41;4963903;28;20138;-64
2021/05/29 04:03:37;;;;;;;32.40;18.30;;;;;;;19.46;61.96;98550.00;4961375;28;20481;-63
2021/05/29 04:06:03;;;;;;;33.33;18.83;;;;;;;19.48;61.62;98547.66;4961159;28;20066;-63
2021/05/29 04:08:30;;;;;;;46.50;20.67;;;;;;;19.49;61.74;98551.22;4961538;28;20141;-63
2021/05/29 04:10:56;;;;;;;36.38;19.10;;;;;;;19.45;62.50;98544.81;4961899;28;20400;-63
2021/05/29 04:13:22;;;;;;;36.55;19.40;;;;;;;19.46;62.52;98544.44;4962690;28;20043;-62
2021/05/29 04:15:49;;;;;;;28.77;16.67;;;;;;;19.48;62.03;98549.59;4980803;28;20535;-60
2021/05/29 04:18:15;;;;;;;30.02;17.48;;;;;;;19.58;61.35;98542.66;4965534;28;20138;-61
2021/05/29 04:20:41;;;;;;;38.22;17.75;;;;;;;19.70;61.16;98542.50;4965476;28;20260;-63
2021/05/29 04:23:07;;;;;;;31.40;16.88;;;;;;;19.79;61.30;98550.59;4965983;28;20096;-64
2021/05/29 04:25:33;;;;;;;29.08;16.35;;;;;;;19.87;61.44;98546.00;4965523;28;20055;-62
2021/05/29 04:27:59;;;;;;;33.25;15.80;;;;;;;20.10;60.50;98541.28;4965710;28;20134;-66
2021/05/29 04:30:28;;;;;;;23.10;14.82;;;;;;;20.27;59.82;98537.22;4965840;28;20492;-61
2021/05/29 04:32:55;;;;;;;24.55;15.40;;;;;;;20.42;59.59;98539.44;4964049;28;20165;-63
2021/05/29 04:35:22;;;;;;;33.25;15.77;;;;;;;20.58;59.35;98534.53;4964886;28;20058;-64
2021/05/29 04:37:49;;;;;;;27.23;15.18;;;;;;;20.71;58.88;98537.09;4965587;28;20051;-64
2021/05/29 04:40:16;;;;;;;;;;;;;;;20.70;59.39;98536.28;4964149;28;20054;-64
2021/05/29 04:42:42;;;;;;;22.95;12.55;;;;;;;20.80;59.16;98530.13;4964680;28;19929;-64
2021/05/29 04:45:10;;;;;;;27.10;12.05;;;;;;;20.90;58.32;98530.63;4968826;28;20046;-64
2021/05/29 04:47:36;;;;;;;19.75;10.75;;;;;;;20.85;57.59;98530.97;4964027;28;20130;-62
2021/05/29 04:50:05;;;;;;;24.13;10.15;;;;;;;20.92;56.43;98519.97;4978423;28;20150;-64
2021/05/29 04:52:32;;;;;;;20.02;9.70;;;;;;;21.00;56.07;98530.00;4964042;28;20055;-61
2021/05/29 04:54:58;;;;;;;19.92;9.60;;;;;;;21.09;55.88;98519.41;4969296;28;20517;-64
2021/05/29 04:57:27;;;;;;;23.23;9.40;;;;;;;21.16;55.11;98518.69;4963726;28;20057;-63
2021/05/29 04:59:56;;;;;;;21.23;9.07;;;;;;;21.24;54.77;98514.03;4963058;28;20146;-63
2021/05/29 05:02:22;;;;;;;19.35;8.30;;;;;;;21.26;54.32;98517.22;4964304;28;20411;-64
2021/05/29 05:04:48;;;;;;;14.10;7.95;;;;;;;21.30;53.89;98518.06;4965659;28;20047;-64
2021/05/29 05:07:15;;;;;;;16.65;8.27;;;;;;;21.25;54.00;98505.28;4964092;28;20381;-64
2021/05/29 05:09:41;;;;;;;17.13;8.02;;;;;;;21.06;54.85;98511.81;4964782;28;20118;-64
2021/05/29 05:12:08;;;;;;;17.05;9.82;;;;;;;21.05;54.84;98512.97;4964327;28;20051;-64
2021/05/29 05:14:34;;;;;;;14.40;8.30;;;;;;;21.04;54.49;98516.94;4964346;28;20051;-64
2021/05/29 05:17:00;;;;;;;18.27;8.90;;;;;;;20.98;54.29;98521.25;4963228;28;20050;-63
2021/05/29 05:19:26;;;;;;;22.67;9.30;;;;;;;20.98;54.31;98515.69;4965044;28;20050;-63
2021/05/29 05:21:57;;;;;;;20.13;9.40;;;;;;;21.06;54.47;98524.91;4964062;28;20074;-65
2021/05/29 05:24:24;;;;;;;20.45;11.15;;;;;;;21.21;54.62;98523.09;4964875;28;20133;-64
2021/05/29 05:26:50;;;;;;;20.05;10.02;;;;;;;21.24;54.69;98519.59;4963928;28;20063;-64
2021/05/29 05:29:19;;;;;;;20.02;9.85;;;;;;;21.30;55.17;98515.28;4970016;28;20145;-65
2021/05/29 05:31:45;;;;;;;17.98;10.65;;;;;;;21.24;55.15;98509.25;4969423;28;20046;-62
2021/05/29 05:34:11;;;;;;;17.45;10.20;;;;;;;21.15;55.93;98505.97;4964015;28;20101;-63
2021/05/29 05:36:39;;;;;;;22.38;10.43;;;;;;;21.24;55.61;98505.69;4967142;28;20411;-63
2021/05/29 05:39:05;;;;;;;;;;;;;;;21.32;54.92;98507.38;4963971;28;20051;-64
2021/05/29 05:41:32;;;;;;;18.98;11.38;;;;;;;21.37;54.84;98506.22;4970274;28;19948;-64
2021/05/29 05:43:58;;;;;;;19.25;11.50;;;;;;;21.43;54.35;98503.91;4965347;28;20050;-64
2021/05/29 05:46:24;;;;;;;36.13;12.10;;;;;;;21.47;54.12;98504.75;4964788;28;20042;-64
2021/05/29 05:48:57;;;;;;;28.83;13.23;;;;;;;21.39;54.63;98492.75;4962821;28;20051;-64
2021/05/29 05:51:25;;;;;;;25.63;14.60;;;;;;;21.41;54.28;98501.50;4964924;28;20112;-63
2021/05/29 05:53:52;;;;;;;24.00;13.63;;;;;;;21.54;54.20;98507.59;4962952;28;20070;-64
2021/05/29 05:56:25;;;;;;;22.92;14.80;;;;;;;21.65;54.52;98510.50;4963959;28;20047;-63
2021/05/29 05:58:54;;;;;;;25.10;13.52;;;;;;;21.83;53.84;98498.78;4963298;28;20156;-62
2021/05/29 06:01:20;;;;;;;26.95;16.08;;;;;;;22.08;53.19;98499.81;4963035;28;20054;-62
2021/05/29 06:03:49;;;;;;;22.42;14.05;;;;;;;22.09;53.02;98501.44;4962700;28;20566;-63
2021/05/29 06:06:18;;;;;;;22.65;13.70;;;;;;;22.22;52.50;98501.13;4962911;28;20051;-64
2021/05/29 06:08:44;;;;;;;24.02;14.05;;;;;;;22.21;53.12;98499.50;4963224;28;20047;-63
2021/05/29 06:11:10;;;;;;;29.63;15.32;;;;;;;22.25;52.30;98497.59;4961708;28;20850;-64
2021/05/29 06:21:46;;;;;;;21.88;11.13;;;;;;;22.28;50.15;98485.66;4963672;28;20141;-63
2021/05/29 06:24:17;;;;;;;28.02;11.60;;;;;;;22.42;50.29;98484.97;4962509;28;20051;-63
2021/05/29 06:26:43;;;;;;;25.58;11.07;;;;;;;22.48;50.71;98493.78;4962358;28;20058;-63
2021/05/29 06:29:10;;;;;;;21.10;11.98;;;;;;;22.49;51.19;98495.38;4962143;28;20062;-63
2021/05/29 06:31:37;;;;;;;23.33;12.07;;;;;;;22.28;51.86;98482.88;4961943;28;20051;-62
2021/05/29 06:34:05;;;;;;;20.90;12.93;;;;;;;22.10;52.13;98493.88;4961988;28;20054;-63
2021/05/29 06:36:33;;;;;;;24.05;12.65;;;;;;;21.84;52.66;98500.41;4961684;28;20047;-64
2021/05/29 06:38:59;;;;;;;20.95;12.63;;;;;;;21.84;52.21;98492.84;4967072;28;20045;-63
2021/05/29 06:41:26;;;;;;;23.67;11.88;;;;;;;21.78;52.26;98502.72;4968071;28;20051;-64
2021/05/29 06:43:52;;;;;;;21.02;12.25;;;;;;;21.82;52.35;98503.53;4961712;28;20050;-64
2021/05/29 06:46:18;;;;;;;20.58;11.25;;;;;;;21.66;52.88;98496.25;4962319;28;20416;-63
2021/05/29 06:48:46;;;;;;;23.70;12.40;;;;;;;21.66;53.60;98503.81;4960677;28;20042;-66
2021/05/29 06:51:17;;;;;;;20.00;12.20;;;;;;;21.64;53.67;98504.13;4968053;28;20050;-63
2021/05/29 06:53:48;;;;;;;22.25;11.80;;;;;;;21.56;53.67;98496.91;4964120;28;20061;-63
2021/05/29 06:58:59;;;;;;;19.85;10.52;;;;;;;21.51;53.78;98495.28;4962961;28;20054;-61
2021/05/29 07:01:26;;;;;;;25.77;11.35;;;;;;;21.46;53.33;98494.81;4962851;28;20039;-63
2021/05/29 07:03:53;;;;;;;18.23;9.38;;;;;;;21.43;52.43;98496.38;4964343;28;20515;-62
2021/05/29 07:06:20;;;;;;;16.48;9.10;;;;;;;21.34;51.67;98493.09;4961840;28;20077;-62
2021/05/29 07:08:46;;;;;;;19.53;9.63;;;;;;;21.29;52.27;98487.84;4964542;28;20038;-63
2021/05/29 07:11:13;;;;;;;27.10;10.88;;;;;;;21.27;52.70;98481.88;4961414;28;20829;-64
2021/05/29 07:13:39;;;;;;;21.98;10.05;;;;;;;21.28;52.59;98475.97;4962030;28;20051;-64
2021/05/29 07:16:05;;;;;;;25.20;10.20;;;;;;;21.21;52.91;98482.22;4961765;28;20420;-63
2021/05/29 07:18:34;;;;;;;17.60;10.60;;;;;;;21.17;53.33;98475.03;4962732;28;20091;-63
2021/05/29 07:21:02;;;;;;;22.85;10.45;;;;;;;21.11;53.54;98472.59;4963919;28;20463;-62
2021/05/29 07:23:27;;;;;;;;;;;;;;;21.12;53.89;98476.16;4963231;28;20124;-61
2021/05/29 07:25:54;;;;;;;24.52;11.20;;;;;;;21.06;54.11;98472.91;4963593;28;19953;-63
2021/05/29 07:28:20;;;;;;;31.65;13.95;;;;;;;20.98;54.25;98474.00;4962161;28;20049;-63
2021/05/29 07:30:49;;;;;;;30.17;15.37;;;;;;;20.88;54.29;98477.44;4962372;28;20051;-62
2021/05/29 07:33:15;;;;;;;33.22;15.82;;;;;;;20.80;55.15;98482.06;4961295;28;20053;-66
2021/05/29 07:35:41;;;;;;;31.90;14.75;;;;;;;20.78;55.69;98490.78;4960557;28;20527;-65
2021/05/29 07:38:08;;;;;;;39.85;19.02;;;;;;;20.69;55.99;98484.69;4962176;28;20047;-65
2021/05/29 07:40:37;;;;;;;30.15;17.45;;;;;;;20.63;56.30;98481.44;4964135;28;20522;-65
2021/05/29 07:43:03;;;;;;;33.17;17.38;;;;;;;20.67;56.94;98478.72;4961844;28;20129;-65
2021/05/29 07:45:29;;;;;;;31.45;17.40;;;;;;;20.63;57.31;98483.44;4961350;28;20055;-64
2021/05/29 07:47:55;;;;;;;33.88;17.63;;;;;;;20.60;57.55;98484.97;4964796;28;20058;-63
2021/05/29 07:50:21;;;;;;;28.27;16.58;;;;;;;20.55;58.45;98486.09;4968873;28;20043;-64
2021/05/29 07:52:48;;;;;;;29.77;17.25;;;;;;;20.52;59.04;98480.47;4967210;28;20073;-64
2021/05/29 07:55:16;;;;;;;30.38;16.98;;;;;;;20.51;59.14;98478.88;4967077;28;20055;-65
2021/05/29 07:57:42;;;;;;;29.95;17.65;;;;;;;20.47;59.58;98483.59;4965988;28;20055;-66
2021/05/29 08:00:12;;;;;;;27.40;17.55;;;;;;;20.46;59.70;98484.75;4966806;28;20050;-65
2021/05/29 08:02:40;;;;;;;29.90;18.95;;;;;;;20.45;60.28;98480.38;4969093;28;20074;-63
2021/05/29 08:05:15;;;;;;;36.50;20.23;;;;;;;20.41;60.11;98472.00;4966509;28;20069;-64
2021/05/29 08:07:41;;;;;;;39.50;21.92;;;;;;;20.48;60.49;98480.44;4966931;28;20074;-65
2021/05/29 08:10:09;;;;;;;35.07;21.03;;;;;;;20.50;60.79;98486.44;4965128;28;20054;-65
2021/05/29 08:12:37;;;;;;;41.33;23.90;;;;;;;20.49;61.10;98486.78;4966782;28;20046;-65
2021/05/29 08:15:05;;;;;;;45.20;29.20;;;;;;;20.46;60.98;98479.22;4965355;28;20404;-65
2021/05/29 08:17:31;;;;;;;42.22;23.80;;;;;;;20.48;61.48;98483.22;4965394;28;20087;-65
2021/05/29 08:19:57;;;;;;;40.83;22.95;;;;;;;20.54;62.27;98475.38;4966733;28;20078;-64
2021/05/29 08:22:24;;;;;;;37.03;21.48;;;;;;;20.63;62.07;98475.91;4967848;28;20047;-62
2021/05/29 08:24:50;;;;;;;33.92;20.88;;;;;;;20.72;62.54;98477.59;4966285;28;20070;-62
2021/05/29 08:27:16;;;;;;;35.90;20.05;;;;;;;20.73;61.86;98471.66;4980992;28;20082;-64
2021/05/29 08:29:43;;;;;;;32.50;20.80;;;;;;;20.75;62.66;98472.09;4966242;28;20046;-65
2021/05/29 08:32:09;;;;;;;38.63;18.73;;;;;;;20.68;62.09;98472.00;4980224;28;20106;-66
2021/05/29 08:34:35;;;;;;;25.58;18.48;;;;;;;20.58;62.66;98478.19;4965814;28;20413;-63
2021/05/29 08:37:01;;;;;;;28.00;18.63;;;;;;;20.21;62.96;98485.97;4964918;28;20107;-63
2021/05/29 08:39:27;;;;;;;27.05;18.10;;;;;;;20.07;62.97;98480.19;4965308;28;20046;-62
2021/05/29 08:41:54;;;;;;;27.17;17.38;;;;;;;19.86;63.60;98478.66;4964902;28;20051;-65
2021/05/29 08:44:20;;;;;;;24.50;18.33;;;;;;;19.60;64.33;98482.94;4964735;28;20046;-63
2021/05/29 08:46:49;;;;;;;29.00;18.65;;;;;;;19.27;65.66;98479.53;4964374;28;20051;-63
2021/05/29 08:49:15;;;;;;;32.90;19.95;;;;;;;19.12;67.38;98485.97;4964729;28;20051;-63
2021/05/29 08:51:42;;;;;;;32.63;16.90;;;;;;;18.51;70.38;98483.47;4964572;28;20129;-63
2021/05/29 08:54:08;;;;;;;24.03;15.57;;;;;;;17.97;73.17;98499.56;4962778;28;20098;-62
2021/05/29 08:56:34;;;;;;;23.92;14.35;;;;;;;17.91;73.23;98497.41;4964195;28;20094;-62
2021/05/29 08:59:03;;;;;;;23.25;13.93;;;;;;;17.85;73.76;98488.56;4962962;28;20050;-65
2021/05/29 09:01:33;;;;;;;27.75;12.77;;;;;;;17.57;74.60;98508.75;4965740;28;20043;-65
2021/05/29 09:04:04;;;;;;;20.30;12.80;;;;;;;17.40;75.19;98494.09;4964867;28;20070;-61
2021/05/29 09:06:40;;;;;;;20.52;11.38;;;;;;;17.29;74.93;98481.94;4966730;28;20412;-61
2021/05/29 09:09:08;;;;;;;19.60;11.18;;;;;;;17.17;75.69;98459.91;4960745;28;20051;-61
2021/05/29 09:11:40;;;;;;;24.75;11.90;;;;;;;17.04;76.34;98465.50;4966110;28;20047;-62
2021/05/29 09:14:34;;;;;;;20.92;11.40;;;;;;;17.06;76.25;98473.41;4962633;28;20054;-61
2021/05/29 09:17:16;;;;;;;22.85;11.73;;;;;;;17.20;75.89;98473.81;4965585;28;20054;-63
2021/05/29 09:20:09;;;;;;;18.02;10.57;;;;;;;17.27;75.36;98487.84;4964658;28;20054;-62
2021/05/29 09:22:37;;;;;;;22.75;9.32;;;;;;;17.37;74.93;98471.91;4964341;28;20145;-62
2021/05/29 09:25:10;;;;;;;17.80;9.40;;;;;;;17.30;75.53;98469.75;4964162;28;20051;-63
2021/05/29 09:27:39;;;;;;;15.35;8.23;;;;;;;17.34;74.64;98470.66;4964915;28;20535;-64
2021/05/29 09:30:08;;;;;;;17.63;8.63;;;;;;;17.39;74.10;98470.41;4964106;28;20061;-64
2021/05/29 09:32:36;;;;;;;12.60;7.85;;;;;;;17.29;74.21;98479.19;4964176;28;20579;-61
2021/05/29 09:35:08;;;;;;;14.75;8.13;;;;;;;17.25;74.10;98470.00;4962688;28;20135;-66
2021/05/29 09:37:35;;;;;;;13.23;7.50;;;;;;;17.49;73.95;98455.28;4964431;28;20138;-65
2021/05/29 09:40:05;;;;;;;17.25;7.82;;;;;;;17.72;73.60;98462.97;4962559;28;20045;-64
2021/05/29 09:42:34;;;;;;;21.08;7.80;;;;;;;17.75;73.36;98469.75;4960361;28;20415;-62
2021/05/29 09:45:18;;;;;;;14.77;7.65;;;;;;;17.84;73.20;98460.09;4962983;28;20545;-65
2021/05/29 09:48:10;;;;;;;15.68;7.55;;;;;;;18.33;71.37;98466.44;4964446;28;20388;-66
2021/05/29 09:50:37;;;;;;;13.93;6.90;;;;;;;17.95;71.86;98446.56;4950790;28;20058;-63
2021/05/29 09:53:24;;;;;;;13.30;6.80;;;;;;;17.87;72.50;98458.59;4963814;28;20085;-64
2021/05/29 09:55:50;;;;;;;14.02;7.28;;;;;;;17.85;72.18;98452.63;4963739;28;20046;-61
2021/05/29 09:58:16;;;;;;;12.90;6.50;;;;;;;17.71;72.68;98440.06;4964025;28;20054;-64
2021/05/29 10:00:44;;;;;;;14.52;6.65;;;;;;;17.60;72.82;98443.72;4964016;28;20502;-64
2021/05/29 10:03:11;;;;;;;12.48;6.22;;;;;;;17.47;72.10;98441.00;4967515;28;20047;-66
2021/05/29 10:05:47;;;;;;;12.13;6.93;;;;;;;17.30;72.68;98461.47;4963101;28;20061;-65
2021/05/29 10:08:14;;;;;;;12.27;6.38;;;;;;;17.55;71.86;98442.78;4963615;28;20042;-64
2021/05/29 10:10:41;;;;;;;13.15;6.22;;;;;;;17.50;72.19;98439.50;4962266;28;20038;-62
2021/05/29 10:13:08;;;;;;;13.75;6.95;;;;;;;17.29;72.40;98427.53;4964399;28;20142;-66
2021/05/29 10:15:34;;;;;;;13.52;6.95;;;;;;;17.18;73.43;98412.63;4961172;28;20055;-62
2021/05/29 10:18:03;;;;;;;13.18;6.72;;;;;;;17.27;72.85;98418.78;4963501;28;20059;-61
2021/05/29 10:20:32;;;;;;;9.73;5.88;;;;;;;17.32;72.12;98430.72;4948347;28;20078;-61
2021/05/29 10:23:00;;;;;;;18.30;5.65;;;;;;;16.78;73.64;98458.41;4962086;28;20183;-61
2021/05/29 10:25:26;;;;;;;13.15;5.50;;;;;;;16.52;73.57;98439.50;4967217;28;20043;-61
2021/05/29 10:27:54;;;;;;;15.68;5.63;;;;;;;16.54;73.77;98431.69;4964864;28;20065;-62
2021/05/29 10:30:22;;;;;;;51.05;8.45;;;;;;;16.39;72.88;98438.72;4962584;28;20047;-65
2021/05/29 10:33:11;;;;;;;12.50;5.00;;;;;;;16.32;72.88;98413.69;4965418;28;20515;-61
2021/05/29 10:35:38;;;;;;;12.35;4.75;;;;;;;16.34;72.72;98405.84;4978704;28;20069;-61
2021/05/29 10:38:09;;;;;;;12.63;5.03;;;;;;;16.44;72.12;98419.19;4966252;28;20058;-65
2021/05/29 10:40:38;;;;;;;15.35;5.25;;;;;;;16.39;72.29;98400.91;4963788;28;20047;-64
2021/05/29 10:43:07;;;;;;;15.02;4.88;;;;;;;16.45;72.29;98413.28;4963767;28;20057;-64
2021/05/29 10:45:35;;;;;;;13.75;4.90;;;;;;;16.52;72.28;98422.97;4960797;28;20074;-63
2021/05/29 10:48:03;;;;;;;10.70;4.50;;;;;;;16.55;72.19;98412.03;4962794;28;20055;-63
2021/05/29 10:53:51;;;;;;;11.80;4.43;;;;;;;16.39;72.32;98413.88;4963629;28;20050;-64
2021/05/29 10:56:29;;;;;;;12.80;5.18;;;;;;;16.34;73.07;98427.91;4962551;28;20149;-64
2021/05/29 10:58:57;;;;;;;12.80;5.07;;;;;;;16.38;72.94;98421.38;4963482;28;20062;-64
2021/05/29 11:01:59;;;;;;;11.70;4.78;;;;;;;16.45;72.61;98426.31;4962444;28;20423;-65
2021/05/29 11:04:25;;;;;;;21.75;6.05;;;;;;;16.31;72.42;98412.84;4962029;28;20563;-65
2021/05/29 11:06:54;;;;;;;11.85;4.85;;;;;;;16.49;72.26;98407.09;4962900;28;20246;-62
2021/05/29 11:09:48;;;;;;;9.80;4.25;;;;;;;16.40;72.23;98396.22;4962587;28;20047;-63
2021/05/29 11:12:16;;;;;;;14.75;4.65;;;;;;;16.16;72.83;98429.00;4962378;28;20045;-62
2021/05/29 11:14:51;;;;;;;11.43;4.10;;;;;;;16.23;72.99;98413.81;4963670;28;20050;-64
2021/05/29 11:17:19;;;;;;;15.10;5.15;;;;;;;16.10;73.27;98415.78;4962918;28;20070;-65
2021/05/29 11:20:07;;;;;;;9.57;4.70;;;;;;;16.10;73.18;98404.75;4944061;28;20182;-61
2021/05/29 11:22:45;;;;;;;14.98;5.22;;;;;;;16.14;73.29;98425.75;4958734;28;20054;-64
2021/05/29 11:25:15;;;;;;;11.45;4.85;;;;;;;16.06;73.57;98417.59;4963292;28;20539;-65
2021/05/29 11:27:43;;;;;;;30.85;9.88;;;;;;;15.87;73.62;98439.06;4963594;28;20146;-66
2021/05/29 11:30:12;;;;;;;21.10;9.70;;;;;;;15.93;73.56;98431.41;4964135;28;20455;-63
2021/05/29 11:35:34;;;;;;;11.55;6.05;;;;;;;15.83;73.88;98446.38;4963633;28;20462;-65
2021/05/29 11:38:08;;;;;;;9.70;4.43;;;;;;;15.84;73.30;98453.53;4965194;28;20050;-63
2021/05/29 11:40:45;;;;;;;7.93;3.67;;;;;;;15.69;72.48;98441.22;4962852;28;20467;-64
2021/05/29 11:43:14;;;;;;;12.73;4.35;;;;;;;15.60;72.30;98411.00;4961428;28;20050;-64
2021/05/29 11:45:40;;;;;;;8.20;3.72;;;;;;;15.51;72.86;98432.34;4962802;28;20050;-64